Bremerton, WA

2:36 AM PST on December 07, 2016 (GMT -0800)
Old Middle School | | Change Station
Active Advisory: Winter Storm Watch

Elev 302 ft 47.59 °N, 122.62 °W | Updated 58 seconds ago

Mostly Cloudy
Mostly Cloudy
29.2 °F
Feels Like 29 °F
N
1.0
Wind Variable Wind from South

Today
High -- | Low -- °F
--% Chance of Precip.
Yesterday
High -- | Low -- °F
Precip. -- in
Pressure 30.41 in
Visibility 10.0 miles
Clouds Mostly Cloudy 6000 ft
Windchill 29 °F
Dew Point 23 °F
Humidity 78%
Rainfall 0.00 in
Snow Depth Not available.
7:45 AM 4:19 PM
Waxing Crescent, 51% visible
METAR KPWT 071015Z 03009KT 10SM BKN060 M01/M06 A3041 RMK AO1
Pressure 30.41 in
Visibility 10.0 miles
Clouds Mostly Cloudy 6000 ft
Windchill 29 °F
Dew Point 23 °F
Humidity 78%
Rainfall 0.00 in
Snow Depth Not available.
7:45 AM 4:19 PM
Waxing Crescent, 51% visible
METAR KPWT 071015Z 03009KT 10SM BKN060 M01/M06 A3041 RMK AO1

10-Day Weather Forecast

Almanac

Astronomy

Dec. 07, 2016 Rise Set
Actual Time
Civil Twilight
Nautical Twilight
Astronomical Twilight
Moon
Length of Visible Light
Length of Day
Tomorrow will be .
, % of the Moon is Illuminated

Today's Extremes

State Highs State Lows

Community

WunderPhotos

Upload Photos

1,956,111 photos uploaded!

WunderBlog® & News

Nearby

Air Quality

  Air Quality AQ Index Pollutant
Not available.

Snow Depth

Station Depth Elevation

Earthquake Activity

City Distance Mag. Time & Date
Minimum magnitude displayed is 2.5.

Coastal Water Temperatures

Place Temperature

Stations

Nearby Weather Stations

Station Location Temp. Windchill Dew Point Humidity Wind Precip. Elev Updated Type
                   

Watches & Warnings

Winter Storm Watch
Issued: 8:16 PM PST Dec. 6, 2016 – National Weather Service

... Winter Storm Watch in effect from Thursday morning through Friday
morning...

The National Weather Service in Seattle has issued a Winter Storm
Watch... which is in effect from Thursday morning through Friday
morning.

* Timing... a weather system will move from south to north over
western Washington on Thursday and Thursday night. Cold air will
be in place at the surface when precipitation begins. The
precipitation is likely to begin as snow... then change to rain.
Around 12 hours of snowfall is possible at most locations in the
interior lowlands. Four inches or more of snow is possible. The
Hood Canal area... where strong east winds will add an upslope
component to the snow... could get seven inches or more. The
onset of snow... and the change to rain... will be earlier in the
south and later in the north. By Friday morning it is
anticipated that snow will have changed to rain everywhere.

* Main impact... travel will be greatly affected.

Precautionary/preparedness actions...

A Winter Storm Watch means there is a potential for significant
snow... sleet... or ice accumulations that may impact travel. Continue
to monitor the latest forecasts.